Timeline UpdatesTrip UpdatesNews PostsPvt PostsTravel TipsAdmin PostsConv PostsFollowed PostsChat RequestsBlog PostsPNR Posts

Disclaimer
Search
 
 
Sat Jul 26, 2014 10:36:20 ISTHomeTrainsΣChainsAtlasPNRForumGalleryNewsFAQTripsMembersLoginFeedback
No Recent News for this Train
Other Trains in the News **new
Latest...
Will Reach TVC @ 17.15 Wef 05/07/2014.
Sat Jun 28, 2014 (08:30PM)
⇐ Return Journey: Train# 12512

12511/Raptisagar SF Express

Nov 01 2013 (7:36AM)
Change Departure Station:
Change Arrival Station:
Post a Train Travel TipPost a Train Travel Tip **new
Post a Comment/Question/Picture/VideoPost a Comment/Question/Picture/Video
Pantry/Catering
✓ Pantry Car Avbl
✓ Catering Avbl
Loco/Rake Reversals
MAS/Chennai Central (12); LJN/Lucknow Junction (6); SRR/Shoranur Junction (7);
RSA - Rake Sharing
12511/12512/12589/12590/12591/12592
Rake/Coach Composition
Loco- SLR-UR-UR-A1-B4-B3-B2-B1-PC-S12-S11-S10-S9-S8-S7-S6-S5-S4-S3-S2-S1-UR-UR-SLR. ; 2AC-1, 3AC-4, PC-1, SL-12, UR-4, SLR-2= 24 COACHES.; B4 added as per http://indiarailinfo.com/pnr/post/635962
Loco
#WDM 3A GondaTill Jhansi . #WAP 4 ED/AJJ/RPM
News    PNR    Forum    Time-Table    Availability    Fare Chart    Map    Arr/Dep History    Trips    Gallery    ΣChains    X/O    Timeline    
Travel Time: 2h 25m    2 halts    Distance: 100 km    Avg Speed: 41 km/hr
Type: SuperFast
Zone: NER/North Eastern
Departs @ 07:55
Platform# 1
S T   S
Coimbatore Main Junction/CBE 
Arrives @ 10:20
Platform# 5
S T   S
Shoranur Junction/SRR 

2 halts. 14 intermediate Stations between Coimbatore Main Junction and Shoranur Junction

Show ALL intermediate Stations  Show Old Time-Table

#CodeStation NameX/OArrivesAvgDepartsAvgHaltPFDay#KmSpeedElevZoneAddress
1GKPGorakhpur Junction (10)  -06:35-91-2835.15784mNERGorakhpur 273001, Uttar Pradesh
2KLDKhalilabad (3)  07:11-07:13-2m11-2801.26686mNERKhalilabad- 272175, Uttar Pradesh
3BSTBasti (4)  07:40-07:45-5m11-2771.77390mNERBasti 272001, Uttar Pradesh
4MURMankapur Junction (5)O  08:35-08:37-2m31-2711.173104mNERDistrict Gonda, Uttar Pradesh
5GDGonda Junction (3)  09:00-09:05-5m11-2683.265110mNERGonda 271001, Uttar Pradesh
6BBKBarabanki Junction (4)  10:27-10:29-2m11-2593.955122mNRPin-225001, Uttar Pradesh
7BNZBadshahnagar (2)  10:56-10:58-2m11-2569.321116mNERLucknow, Uttar Pradesh
8LJNLucknow Junction (6)X11:30-11:50-20m21-2558.363126mNERLucknow, Uttar Pradesh
9ONUnnao Junction (5)X  12:41-12:43-2m21-2504.431129mNRUnnao, Uttar Pradesh
10CNBKanpur Central (10)  13:17-13:22-5m41-2487.064128mNCRKANPUR-208 001, Uttar Pradesh
11PHNPokhrayan (2)  14:17-14:19-2m11-2428.580133mNCRPukhrayan, Uttar Pradesh
12ORAIOrai (3)  14:55-15:00-5m21-2380.765139mNCROrai(05162-252206), Uttar Pradesh
13JHSJhansi Junction (7)16:45-17:00-15m21-2266.887259mNCRJhansi, Uttar Pradesh
14LARLalitpur (3)  18:02-18:04-2m11-2176.467373mNCRLalitpur, Uttar Pradesh
15BPLBhopal Junction (6)X  21:05-21:15-10m11-1975.052497mWCRBhopal, Madhya Pradesh
16ETItarsi Junction (7)  23:00-23:05-5m21-1883.268329mWCRItarsi 461111, Madhya Pradesh
17GDYAGhoradongri (3)  00:07-00:09-2m--2-1812.949410mCRBetul, Madhya Pradesh
18BZUBetul (3)X  00:53-00:55-2m--2-1777.057644mCRBetul, Madhya Pradesh
19AMLAAmla Junction (5)XO  01:19-01:22-3m--2-1754.163733mCRAmla Distt. Betul, Madhya Pradesh
20PARPandhurna (2)X  02:23-02:25-2m--2-1690.460481mCRDistt: Chhindwara, Madhya Pradesh
21NGPNagpur Junction (8)X  04:10-04:20-10m22-1586.179314mCRNagpur 440001, Maharashtra
22SEGMSewagram Junction (5)  05:18-05:20-2m--2-1509.971279mCRWardha, Maharashtra
23HGTHinganghat (3)X  05:48-05:50-2m--2-1476.878228mCRHinganghat, Maharashtra
24CDChandrapur Maharashtra (3)  06:56-06:58-2m--2-1391.312194mCRChandrapur 442401, Maharashtra
25BPQBalharshah Junction (5)XO08:05-08:35-30m32-1377.585188mCRBallarpur. Ph : 07172 - 240341, Maharashtra
26SKZRSirpur Kaghaznagar (3)XO  09:24-09:26-2m22-1307.864181mSCRAdilabad Dist., Telangana
27BPABellampalli (3)  10:02-10:04-2m22-1269.385205mSCRTel:.08735 223298, Telangana
28MCIManchiryal (3)O  10:18-10:20-2m22-1249.5103159mSCRAdilabad Dist., Telangana
29RDMRamagundam (3)X  10:28-10:30-2m22-1235.765170mSCRKarimnagar Dist. Ph : 08728 - 255237, Telangana
30WLWarangal (3)  12:03-12:05-2m12-1134.672271mSCRWarangal., Telangana
31KMTKhammam (2)X  13:35-13:37-2m12-1027.045118mSCRKhammam 507001, Telangana
32BZAVijayawada Junction (10)X  15:50-16:05-15m--2-926.67424mSCRVijayawada 520001, Andhra Pradesh
33CLXChirala (4)X  17:17-17:19-2m--2-837.7698mSCRChirala, Andhra Pradesh
34OGLOngole (3)  18:02-18:04-2m32-788.49312mSCROngole, Andhra Pradesh
35NLRNellore (4)X  19:19-19:20-1m32-671.62521mSCRNellore, Andhra Pradesh
36GDRGudur Junction (3)  20:53-20:55-2m12-633.15719mSCRGudur, Andhra Pradesh
37MASChennai Central (12)X23:20-23:45-25m62-495.7659mSRChennai 600003, Tamil Nadu
38KPDKatpadi Junction (5)X  01:45-01:50-5m13-366.359213mSRVellore 632007, Tamil Nadu
39JTJJolarpettai Junction (5)  03:15-03:20-5m--3-282.485405mSRJolarpettai, Tamil Nadu
40SASalem Junction (6)X  04:45-04:50-5m--3-162.349283mSRSalem, Tamil Nadu
41EDErode Junction (4)X  06:05-06:15-10m13-100.570175mSRErode ph.no: 0424-2256111, Tamil Nadu
42TUPTiruppur (2)  06:58-07:00-2m13-50.661305mSRTiruppur. Ph:0421-2200450, Tamil Nadu
43CBE»Coimbatore Main Junction (6)»X  07:50-07:55-5m130.048416mSRCoimbatore 641001, Tamil Nadu
44PGTPalakkad Junction (4)XO  09:05-09:10-5m2355.76784mSRPalghat Tel: 0491 2555231, Kerala
45OTPOttappalam (2)X  09:38-09:40-2m1387.21930mSROttapalam, Kerala
46SRR•Shoranur Junction (7)•X10:20-10:30-10m53100.05526mSRShoranur ph.no 0466-2222913, Kerala
47WKIWadakkanchery (2)X  10:48-10:50-2m13116.63640mSRWadackanchery, Kerala
48TCRThrissur (4)O  11:17-11:20-3m13133.0536mSRThrissur Tel: 0487 2423150, Kerala
49IJKIrinjalakkuda (2)  11:47-11:48-1m--3156.77718mSRKalletumkara, Kerala
50CKIChalakkudy (3)X  11:53-11:55-2m13163.2709mSRPh: 0480- 2701368, Kerala
51AFKAngamaly for Kalady (3)  12:08-12:10-2m--3178.45516mSRPhone: 0484-2452340, Kerala
52AWYAluva (3)  12:20-12:23-3m13187.63212mSRPh: 0484-2624141, Kerala
53ERNErnakulam Town (North) (2)XO  12:55-12:57-2m23204.4129mSRTel: 0484 2395198, Kerala
54ERSErnakulam Junction (South) (6)  13:10-13:15-5m43207.0473mSRErnakulam 682016, Kerala
55SRTLCherthala (3)  13:58-14:00-2m23240.4457mSRPh: 0478- 2812500, Kerala
56ALLPAlappuzha (3)  14:32-14:35-3m13264.5568mSRPh:0477-2253965, Kerala
57AMPAAmbalappuzha (1)  14:48-14:50-2m13276.7606mSRph 0477-2272620, Kerala
58HADHarippad (2)  15:08-15:10-2m--3294.6617mSRHaripad 0479-2412714, Kerala
59KYJKayamkulam Junction (5)  15:23-15:25-2m23307.95411mSRAlappuzha Ph;0479-2442042, Kerala
60QLNKollam Junction (6)  16:10-16:15-5m13348.75216mSRKollam 0474-2746194, Kerala
61TVCTrivandrum Central (5)  17:30--13413.3-12mSRThiruvananthapuram 695001, Kerala
Scroll to Top
Scroll to Bottom